Time;durP1;ratioP1;P1;durP2;ratioP2;P2;SDS_P1;SDS_P2;PMS_P1;PMS_P2;Temp;Humidity;BMP_temperature;BMP_pressure;BME280_temperature;BME280_humidity;BME280_pressure;Samples;Min_cycle;Max_cycle;Signal;HPM_P1;HPM_P2
2023/04/02 00:00:10;;;;;;;2.30;1.50;;;5.90;99.90;;;;;;2077744;28;20185;-63
2023/04/02 00:01:22;;;;;;;4.25;1.17;;;5.90;99.90;;;;;;2076266;28;20194;-63
2023/04/02 00:02:31;;;;;;;1.02;0.88;;;5.90;99.90;;;;;;2076787;28;20292;-63
2023/04/02 00:03:43;;;;;;;2.10;1.10;;;5.90;99.90;;;;;;2076009;28;20174;-63
2023/04/02 00:05:15;;;;;;;1.48;1.10;;;5.90;99.90;;;;;;2076366;28;20689;-63
2023/04/02 00:06:31;;;;;;;1.40;0.90;;;5.90;99.90;;;;;;2076518;28;20235;-62
2023/04/02 00:07:39;;;;;;;0.93;0.80;;;5.80;99.90;;;;;;2076379;28;20270;-63
2023/04/02 00:08:45;;;;;;;3.47;1.30;;;5.80;99.90;;;;;;2076777;28;20217;-63
2023/04/02 00:09:51;;;;;;;1.98;1.05;;;5.80;99.90;;;;;;2076507;28;20213;-63
2023/04/02 00:11:00;;;;;;;2.20;1.10;;;5.90;99.90;;;;;;2076729;28;20234;-63
2023/04/02 00:12:17;;;;;;;4.15;1.45;;;6.00;99.90;;;;;;2075900;28;20212;-63
2023/04/02 00:13:40;;;;;;;1.00;0.80;;;6.00;99.90;;;;;;2076401;28;20241;-63
2023/04/02 00:14:54;;;;;;;4.13;1.15;;;6.10;99.90;;;;;;2071958;28;20192;-63
2023/04/02 00:16:02;;;;;;;3.58;1.88;;;6.10;99.90;;;;;;2075972;28;20276;-63
2023/04/02 00:17:05;;;;;;;3.00;1.00;;;6.20;99.90;;;;;;2076277;28;20629;-62
2023/04/02 00:18:16;;;;;;;1.33;0.95;;;6.20;99.90;;;;;;2068424;28;20738;-63
2023/04/02 00:19:41;;;;;;;1.40;0.90;;;6.20;99.90;;;;;;2063832;28;20260;-61
2023/04/02 00:20:55;;;;;;;1.15;0.80;;;6.20;99.90;;;;;;2076638;28;20212;-62
2023/04/02 00:22:04;;;;;;;2.00;1.05;;;6.30;99.90;;;;;;2076560;28;20211;-63
2023/04/02 00:23:13;;;;;;;2.50;1.00;;;6.20;99.90;;;;;;2076008;28;20191;-62
2023/04/02 00:24:21;;;;;;;1.77;1.02;;;6.20;99.90;;;;;;2069121;28;20222;-63
2023/04/02 00:25:29;;;;;;;2.10;1.00;;;6.20;99.90;;;;;;2076063;28;20185;-63
2023/04/02 00:26:43;;;;;;;1.20;1.10;;;6.20;99.90;;;;;;2075913;28;20193;-62
2023/04/02 00:27:49;;;;;;;2.72;1.33;;;6.30;99.90;;;;;;2076356;28;20189;-62
2023/04/02 00:28:56;;;;;;;5.05;1.13;;;6.30;99.90;;;;;;2076491;28;20193;-63
2023/04/02 00:30:03;;;;;;;2.38;1.27;;;6.30;99.90;;;;;;2076608;28;20200;-62
2023/04/02 00:31:04;;;;;;;2.30;1.10;;;6.20;99.90;;;;;;2076214;28;20572;-62
2023/04/02 00:32:20;;;;;;;2.00;1.00;;;6.20;99.90;;;;;;2074182;28;20190;-61
2023/04/02 00:33:29;;;;;;;1.85;1.20;;;6.30;99.90;;;;;;2070747;28;20181;-62
2023/04/02 00:34:36;;;;;;;1.52;1.25;;;6.30;99.90;;;;;;2063731;28;20187;-62
2023/04/02 00:35:42;;;;;;;3.53;1.20;;;6.30;99.90;;;;;;2070062;28;20216;-66
2023/04/02 00:36:49;;;;;;;1.95;1.27;;;6.30;99.90;;;;;;2077126;28;20195;-61
2023/04/02 00:37:55;;;;;;;1.50;1.20;;;6.30;99.90;;;;;;2077408;28;20222;-62
2023/04/02 00:39:09;;;;;;;1.98;1.13;;;6.20;99.90;;;;;;2076469;28;20246;-62
2023/04/02 00:40:25;;;;;;;1.40;1.05;;;6.20;99.90;;;;;;2075967;28;20328;-62
2023/04/02 00:41:34;;;;;;;3.55;1.20;;;6.20;99.90;;;;;;2075703;28;20197;-62
2023/04/02 00:42:40;;;;;;;1.30;1.00;;;6.20;99.90;;;;;;2076610;28;20190;-62
2023/04/02 00:43:49;;;;;;;2.63;1.05;;;6.10;99.90;;;;;;2070037;28;20236;-62
2023/04/02 00:44:57;;;;;;;1.38;1.10;;;6.10;99.90;;;;;;2069331;28;20228;-62
2023/04/02 00:46:12;;;;;;;2.28;1.30;;;6.00;99.90;;;;;;2069761;28;20186;-62
2023/04/02 00:47:32;;;;;;;3.78;1.15;;;5.90;99.90;;;;;;2076335;28;20539;-62
2023/04/02 00:48:58;;;;;;;1.80;1.17;;;5.90;99.90;;;;;;2076258;28;20650;-61
2023/04/02 00:50:32;;;;;;;1.58;1.08;;;5.90;99.90;;;;;;2079109;28;20195;-61
2023/04/02 00:51:59;;;;;;;3.50;1.30;;;5.90;99.90;;;;;;2078952;28;20220;-63
2023/04/02 00:53:14;;;;;;;2.60;1.20;;;6.00;99.90;;;;;;2072041;28;20202;-62
2023/04/02 00:54:22;;;;;;;2.20;1.20;;;6.00;99.90;;;;;;2081071;28;20216;-62
2023/04/02 00:55:38;;;;;;;3.65;1.40;;;6.00;99.90;;;;;;2076192;28;20730;-62
2023/04/02 00:56:48;;;;;;;1.73;0.90;;;6.00;99.90;;;;;;2072920;28;20230;-62
2023/04/02 00:57:57;;;;;;;2.63;1.30;;;6.10;99.90;;;;;;2070395;28;20261;-62
2023/04/02 00:59:04;;;;;;;2.22;1.50;;;6.00;99.90;;;;;;2073396;28;20195;-62
2023/04/02 01:00:47;;;;;;;2.38;1.10;;;6.00;99.90;;;;;;2075913;28;20642;-62
2023/04/02 01:02:25;;;;;;;1.80;1.27;;;5.90;99.90;;;;;;2062908;28;20230;-61
2023/04/02 01:03:34;;;;;;;3.63;1.25;;;5.90;99.90;;;;;;2076730;28;20209;-62
2023/04/02 01:04:40;;;;;;;4.13;1.30;;;6.00;99.90;;;;;;2076621;28;20685;-62
2023/04/02 01:05:50;;;;;;;1.25;0.90;;;6.10;99.90;;;;;;2076491;28;20208;-61
2023/04/02 01:06:57;;;;;;;1.25;1.15;;;6.10;99.90;;;;;;2076097;28;20274;-64
2023/04/02 01:08:27;;;;;;;3.08;1.27;;;6.10;99.90;;;;;;2075854;28;20223;-62
2023/04/02 01:10:10;;;;;;;2.65;1.30;;;6.20;99.90;;;;;;2075835;28;20661;-61
2023/04/02 01:11:51;;;;;;;1.75;1.00;;;6.20;99.90;;;;;;2075420;28;20629;-60
2023/04/02 01:13:12;;;;;;;2.15;1.13;;;6.10;99.90;;;;;;2073928;28;20228;-62
2023/04/02 01:14:54;;;;;;;1.60;1.25;;;6.10;99.90;;;;;;2076197;28;20216;-62
2023/04/02 01:16:18;;;;;;;7.78;1.42;;;6.10;99.90;;;;;;2076542;28;20203;-62
2023/04/02 01:17:38;;;;;;;1.73;1.10;;;6.10;99.90;;;;;;2079680;28;20197;-61
2023/04/02 01:18:55;;;;;;;4.47;1.52;;;6.00;99.90;;;;;;2076409;28;20190;-62
2023/04/02 01:20:50;;;;;;;1.75;1.30;;;6.00;99.90;;;;;;2077917;28;20239;-62
2023/04/02 01:22:17;;;;;;;2.45;1.35;;;6.00;99.90;;;;;;2080111;28;20203;-62
2023/04/02 01:23:40;;;;;;;1.70;1.35;;;6.00;99.90;;;;;;2076876;28;20193;-62
2023/04/02 01:24:47;;;;;;;2.10;1.23;;;6.00;99.90;;;;;;2077808;28;20182;-61
2023/04/02 01:26:08;;;;;;;1.88;1.17;;;6.00;99.90;;;;;;2078709;28;20186;-62
2023/04/02 01:27:28;;;;;;;2.55;1.00;;;6.00;99.90;;;;;;2077696;28;20188;-62
2023/04/02 01:29:00;;;;;;;2.45;1.13;;;5.90;99.90;;;;;;2077332;28;20202;-62
2023/04/02 01:30:06;;;;;;;2.65;1.20;;;5.90;99.90;;;;;;2077403;28;20200;-62
2023/04/02 01:31:09;;;;;;;2.97;1.20;;;5.90;99.90;;;;;;2077461;28;20565;-62
2023/04/02 01:32:19;;;;;;;3.90;1.20;;;5.90;99.90;;;;;;2077904;28;20356;-63
2023/04/02 01:33:32;;;;;;;2.20;1.20;;;6.00;99.90;;;;;;2071391;28;20227;-62
2023/04/02 01:34:38;;;;;;;3.95;1.48;;;6.00;99.90;;;;;;2080457;28;20169;-61
2023/04/02 01:35:54;;;;;;;1.83;1.63;;;6.10;99.90;;;;;;2077113;28;20181;-62
2023/04/02 01:37:31;;;;;;;2.45;1.67;;;6.10;99.90;;;;;;2073756;28;20219;-61
2023/04/02 01:38:55;;;;;;;2.08;1.50;;;6.00;99.90;;;;;;2075059;28;20697;-62
2023/04/02 01:40:33;;;;;;;1.95;1.65;;;5.90;99.90;;;;;;2077134;28;20200;-62
2023/04/02 01:42:02;;;;;;;1.80;1.20;;;5.90;99.90;;;;;;2076512;28;20671;-62
2023/04/02 01:43:41;;;;;;;1.58;1.13;;;5.80;99.90;;;;;;2077737;28;20220;-62
2023/04/02 01:45:00;;;;;;;2.20;1.35;;;5.70;99.90;;;;;;2078993;28;20196;-62
2023/04/02 01:46:39;;;;;;;3.25;1.48;;;5.80;99.90;;;;;;2070715;28;20225;-62
2023/04/02 01:47:45;;;;;;;1.40;1.30;;;5.80;99.90;;;;;;2070309;28;20352;-62
2023/04/02 01:48:56;;;;;;;2.42;1.40;;;5.80;99.90;;;;;;2077789;28;20211;-64
2023/04/02 01:50:21;;;;;;;3.33;1.20;;;5.80;99.90;;;;;;2077544;28;20571;-62
2023/04/02 01:51:34;;;;;;;2.25;1.40;;;5.90;99.90;;;;;;2077149;28;20185;-62
2023/04/02 01:52:43;;;;;;;2.25;1.30;;;5.90;99.90;;;;;;2077763;28;20183;-62
2023/04/02 01:53:48;;;;;;;2.10;1.40;;;5.90;99.90;;;;;;2076841;28;20268;-62
2023/04/02 01:54:56;;;;;;;1.25;1.10;;;5.90;99.90;;;;;;2077848;28;20186;-62
2023/04/02 01:56:03;;;;;;;1.38;1.27;;;5.90;99.90;;;;;;2077987;28;20173;-62
2023/04/02 01:57:06;;;;;;;3.25;1.30;;;5.90;99.90;;;;;;2077798;28;20224;-62
2023/04/02 01:58:12;;;;;;;1.63;1.30;;;5.90;99.90;;;;;;2076980;28;20189;-63
2023/04/02 01:59:21;;;;;;;3.33;1.20;;;6.00;99.90;;;;;;2070489;28;20285;-62
2023/04/02 02:00:29;;;;;;;1.42;1.20;;;6.00;99.90;;;;;;2079780;28;20185;-62
2023/04/02 02:01:51;;;;;;;1.40;1.00;;;6.10;99.90;;;;;;2076958;28;20886;-63
2023/04/02 02:03:00;;;;;;;4.82;1.10;;;6.20;99.90;;;;;;2077300;28;20189;-62
2023/04/02 02:04:05;;;;;;;2.53;1.30;;;6.20;99.90;;;;;;2077535;28;20216;-63
2023/04/02 02:05:16;;;;;;;1.83;1.55;;;6.20;99.90;;;;;;2077112;28;20609;-62
2023/04/02 02:06:22;;;;;;;2.33;1.10;;;6.10;99.90;;;;;;2070696;28;20189;-62
2023/04/02 02:07:28;;;;;;;1.35;1.20;;;6.10;99.90;;;;;;2077133;28;20256;-62
2023/04/02 02:08:56;;;;;;;3.70;1.30;;;6.10;99.90;;;;;;2077170;28;20190;-61
2023/04/02 02:10:02;;;;;;;1.80;1.20;;;6.10;99.90;;;;;;2073323;28;20177;-62
2023/04/02 02:11:06;;;;;;;2.35;1.20;;;6.00;99.90;;;;;;2076693;28;20185;-63
2023/04/02 02:12:13;;;;;;;3.60;1.27;;;6.00;99.90;;;;;;2076978;28;20180;-62
2023/04/02 02:13:20;;;;;;;2.70;1.38;;;6.00;99.90;;;;;;2076868;28;20841;-62
2023/04/02 02:14:28;;;;;;;3.85;1.20;;;6.00;99.90;;;;;;2070238;28;20202;-63
2023/04/02 02:15:35;;;;;;;1.83;1.30;;;6.00;99.90;;;;;;2071386;28;20178;-62
2023/04/02 02:16:41;;;;;;;1.65;1.10;;;6.00;99.90;;;;;;2079992;28;20181;-62
2023/04/02 02:17:48;;;;;;;1.90;1.20;;;5.90;99.90;;;;;;2077111;28;20582;-62
2023/04/02 02:18:59;;;;;;;1.40;1.10;;;5.90;99.90;;;;;;2077388;28;20205;-62
2023/04/02 02:20:10;;;;;;;2.03;1.05;;;5.90;99.90;;;;;;2077254;28;20634;-62
2023/04/02 02:21:49;;;;;;;2.35;1.67;;;5.90;99.90;;;;;;2076363;28;20197;-62
2023/04/02 02:22:56;;;;;;;2.03;1.40;;;5.90;99.90;;;;;;2077564;28;20185;-62
2023/04/02 02:24:03;;;;;;;2.38;1.35;;;5.90;99.90;;;;;;2079880;28;20736;-62
2023/04/02 02:25:17;;;;;;;1.55;1.20;;;6.00;99.90;;;;;;2078816;28;20181;-62
2023/04/02 02:26:25;;;;;;;2.38;1.23;;;5.90;99.90;;;;;;2074974;28;20639;-62
2023/04/02 02:27:52;;;;;;;1.42;1.00;;;5.10;99.90;;;;;;2069956;28;20182;-62
2023/04/02 02:29:00;;;;;;;1.02;1.02;;;5.70;99.90;;;;;;2072067;28;20325;-62
2023/04/02 02:30:36;;;;;;;1.35;1.00;;;5.70;99.90;;;;;;2080530;28;20200;-62
2023/04/02 02:31:46;;;;;;;1.33;1.10;;;5.80;99.90;;;;;;2060437;28;20194;-62
2023/04/02 02:33:06;;;;;;;1.70;1.30;;;5.70;99.90;;;;;;2070197;28;20602;-62
2023/04/02 02:34:20;;;;;;;3.38;1.42;;;5.60;99.90;;;;;;2071529;28;20208;-63
2023/04/02 02:35:37;;;;;;;1.40;1.10;;;5.60;99.90;;;;;;2068494;28;20220;-63
2023/04/02 02:36:54;;;;;;;2.97;1.50;;;5.60;99.90;;;;;;2072117;28;20181;-62
2023/04/02 02:38:25;;;;;;;1.30;1.15;;;5.70;99.90;;;;;;2071472;28;20198;-63
2023/04/02 02:39:42;;;;;;;3.53;1.27;;;5.60;99.90;;;;;;2077042;28;20189;-63
2023/04/02 02:40:52;;;;;;;1.67;1.30;;;5.50;99.90;;;;;;2076783;28;20184;-63
2023/04/02 02:42:26;;;;;;;1.60;1.05;;;5.60;99.90;;;;;;2067612;28;20194;-63
2023/04/02 02:43:33;;;;;;;3.17;0.95;;;5.60;99.90;;;;;;2073920;28;20219;-63
2023/04/02 02:44:46;;;;;;;1.98;1.00;;;5.60;99.90;;;;;;2069526;28;20926;-62
2023/04/02 02:45:54;;;;;;;1.05;0.80;;;5.50;99.90;;;;;;2075110;28;20194;-63
2023/04/02 02:47:02;;;;;;;1.25;1.13;;;5.40;99.90;;;;;;2075381;28;20186;-63
2023/04/02 02:48:18;;;;;;;1.42;1.05;;;5.30;99.90;;;;;;2077727;28;20185;-62
2023/04/02 02:49:35;;;;;;;1.75;0.88;;;5.20;99.90;;;;;;2079214;28;20238;-63
2023/04/02 02:50:41;;;;;;;3.03;0.90;;;5.20;99.90;;;;;;2078405;28;20676;-63
2023/04/02 02:52:09;;;;;;;1.13;0.95;;;5.30;99.90;;;;;;2073629;28;20189;-64
2023/04/02 02:53:22;;;;;;;3.25;0.90;;;5.30;99.90;;;;;;2081517;28;20198;-63
2023/04/02 02:54:30;;;;;;;1.67;0.70;;;5.20;99.90;;;;;;2081233;28;20209;-63
2023/04/02 02:55:37;;;;;;;1.50;0.88;;;5.30;99.90;;;;;;2076682;28;20535;-62
2023/04/02 02:56:49;;;;;;;1.00;0.90;;;5.30;99.90;;;;;;2076849;28;20633;-62
2023/04/02 02:58:14;;;;;;;1.73;1.10;;;5.30;99.90;;;;;;2077918;28;20255;-62
2023/04/02 02:59:21;;;;;;;1.38;1.10;;;5.30;99.90;;;;;;2077367;28;20185;-63
2023/04/02 03:00:27;;;;;;;1.85;1.10;;;5.40;99.90;;;;;;2077228;28;20220;-62
2023/04/02 03:01:33;;;;;;;2.05;0.90;;;5.40;99.90;;;;;;2076803;28;20201;-63
2023/04/02 03:02:40;;;;;;;1.25;0.90;;;5.40;99.90;;;;;;2077293;28;20293;-62
2023/04/02 03:03:48;;;;;;;0.85;0.77;;;5.50;99.90;;;;;;2077445;28;20178;-63
2023/04/02 03:04:55;;;;;;;2.35;0.90;;;5.50;99.90;;;;;;2078012;28;20185;-63
2023/04/02 03:06:08;;;;;;;1.77;1.00;;;5.60;99.90;;;;;;2077507;28;20180;-63
2023/04/02 03:07:10;;;;;;;3.00;1.15;;;5.60;99.90;;;;;;2076667;28;20180;-63
2023/04/02 03:08:27;;;;;;;1.15;1.00;;;5.50;99.90;;;;;;2076442;28;20196;-62
2023/04/02 03:10:04;;;;;;;1.50;1.10;;;5.50;99.90;;;;;;2076642;28;20547;-62
2023/04/02 03:11:25;;;;;;;1.13;1.02;;;5.50;99.90;;;;;;2076952;28;20208;-63
2023/04/02 03:12:51;;;;;;;1.15;0.95;;;5.40;99.90;;;;;;2076537;28;20607;-62
2023/04/02 03:14:13;;;;;;;1.42;1.20;;;5.40;99.90;;;;;;2076812;28;20220;-62
2023/04/02 03:16:15;;;;;;;1.33;0.80;;;5.40;99.90;;;;;;2080184;28;20198;-63
2023/04/02 03:17:38;;;;;;;1.88;1.13;;;5.40;99.90;;;;;;2070428;28;20690;-62
2023/04/02 03:18:54;;;;;;;3.05;1.15;;;5.40;99.90;;;;;;2077706;28;20189;-64
2023/04/02 03:20:34;;;;;;;1.25;1.10;;;5.40;99.90;;;;;;2071566;28;20192;-63
2023/04/02 03:21:48;;;;;;;3.63;0.93;;;5.50;99.90;;;;;;2072206;28;20206;-62
2023/04/02 03:23:05;;;;;;;3.80;1.20;;;5.50;99.90;;;;;;2070993;28;20682;-62
2023/04/02 03:24:40;;;;;;;1.00;0.90;;;5.60;99.90;;;;;;2063370;28;20241;-63
2023/04/02 03:26:09;;;;;;;0.75;0.75;;;5.60;99.90;;;;;;2069485;28;20189;-62
2023/04/02 03:27:25;;;;;;;1.90;1.00;;;5.50;99.90;;;;;;2074194;28;20201;-62
2023/04/02 03:28:38;;;;;;;1.92;0.70;;;5.30;99.90;;;;;;2072562;28;20264;-63
2023/04/02 03:30:04;;;;;;;2.90;1.17;;;5.30;99.90;;;;;;2078671;28;20251;-63
2023/04/02 03:31:25;;;;;;;1.23;1.13;;;5.20;99.90;;;;;;2077260;28;20661;-62
2023/04/02 03:32:39;;;;;;;1.30;1.10;;;5.20;99.90;;;;;;2071742;28;20264;-62
2023/04/02 03:33:54;;;;;;;1.05;0.85;;;5.20;99.90;;;;;;2070752;28;20185;-63
2023/04/02 03:35:20;;;;;;;1.27;0.80;;;5.30;99.90;;;;;;2073476;28;20276;-62
2023/04/02 03:36:57;;;;;;;1.08;0.80;;;5.30;99.90;;;;;;2076523;28;20664;-62
2023/04/02 03:38:12;;;;;;;0.88;0.80;;;5.30;99.90;;;;;;2077286;28;20200;-63
2023/04/02 03:39:41;;;;;;;1.20;0.82;;;5.30;99.90;;;;;;2078341;28;20184;-63
2023/04/02 03:41:06;;;;;;;0.70;0.70;;;5.30;99.90;;;;;;2077084;28;20189;-63
2023/04/02 03:42:25;;;;;;;0.60;0.60;;;5.30;99.90;;;;;;2068243;28;20617;-63
2023/04/02 03:43:39;;;;;;;0.70;0.70;;;5.20;99.90;;;;;;2071492;28;20193;-63
2023/04/02 03:44:59;;;;;;;0.95;0.60;;;5.30;99.90;;;;;;2076586;28;20196;-63
2023/04/02 03:46:21;;;;;;;0.60;0.60;;;5.20;99.90;;;;;;2078680;28;20737;-63
2023/04/02 03:47:58;;;;;;;1.00;0.70;;;5.20;99.90;;;;;;2077821;28;20189;-62
2023/04/02 03:49:13;;;;;;;1.42;0.60;;;5.20;99.90;;;;;;2077025;28;20189;-62
2023/04/02 03:50:30;;;;;;;0.85;0.80;;;5.30;99.90;;;;;;2076273;28;20265;-62
2023/04/02 03:51:59;;;;;;;1.52;0.80;;;5.20;99.90;;;;;;2072843;28;20280;-62
2023/04/02 03:53:05;;;;;;;2.85;0.88;;;5.10;99.90;;;;;;2078535;28;20274;-63
2023/04/02 03:54:14;;;;;;;1.02;0.70;;;5.20;99.90;;;;;;2076590;28;20589;-62
2023/04/02 03:55:25;;;;;;;0.70;0.70;;;5.20;99.90;;;;;;2076429;28;20194;-62
2023/04/02 03:56:38;;;;;;;0.65;0.65;;;5.20;99.90;;;;;;2062066;28;20186;-63
2023/04/02 03:58:12;;;;;;;0.60;0.60;;;5.30;99.90;;;;;;2070771;28;20768;-63
2023/04/02 03:59:34;;;;;;;2.53;0.80;;;5.40;99.90;;;;;;2076936;28;20595;-63
2023/04/02 04:01:01;;;;;;;1.00;0.80;;;5.30;99.90;;;;;;2076862;28;20192;-62
2023/04/02 04:02:25;;;;;;;1.95;0.70;;;5.30;99.90;;;;;;2076189;28;20279;-63
2023/04/02 04:04:13;;;;;;;0.60;0.60;;;5.20;99.90;;;;;;2076881;28;20260;-63
2023/04/02 04:05:30;;;;;;;0.70;0.70;;;5.40;99.90;;;;;;2063860;28;20190;-62
2023/04/02 04:06:41;;;;;;;1.92;1.83;;;5.30;99.90;;;;;;2060261;28;20657;-66
2023/04/02 04:07:52;;;;;;;0.50;0.50;;;5.20;99.90;;;;;;2055889;28;20194;-64
2023/04/02 04:09:19;;;;;;;0.52;0.52;;;5.10;99.90;;;;;;2054667;28;20675;-62
2023/04/02 04:10:26;;;;;;;1.60;0.80;;;5.10;99.90;;;;;;2062754;28;20201;-61
2023/04/02 04:11:37;;;;;;;0.88;0.80;;;5.10;99.90;;;;;;2076924;28;20185;-64
2023/04/02 04:12:46;;;;;;;0.40;0.40;;;5.20;99.90;;;;;;2076753;28;20177;-63
2023/04/02 04:14:14;;;;;;;0.80;0.60;;;5.20;99.90;;;;;;2076956;28;20193;-62
2023/04/02 04:15:54;;;;;;;0.60;0.60;;;5.20;99.90;;;;;;2080395;28;20204;-63
2023/04/02 04:18:00;;;;;;;1.17;0.50;;;5.20;99.90;;;;;;2076463;28;20267;-62
2023/04/02 04:19:16;;;;;;;0.50;0.50;;;5.10;99.90;;;;;;2055470;28;20211;-63
2023/04/02 04:20:25;;;;;;;0.50;0.50;;;5.20;99.90;;;;;;2076455;28;20599;-63
2023/04/02 04:21:36;;;;;;;0.88;0.55;;;5.20;99.90;;;;;;2060752;28;20218;-63
2023/04/02 04:22:42;;;;;;;0.70;0.60;;;5.20;99.90;;;;;;2070400;28;20255;-63
2023/04/02 04:23:50;;;;;;;0.73;0.60;;;5.30;99.90;;;;;;2074839;28;20308;-63
2023/04/02 04:25:29;;;;;;;0.65;0.60;;;5.30;99.90;;;;;;2077474;28;20185;-62
2023/04/02 04:26:52;;;;;;;0.50;0.50;;;5.40;99.90;;;;;;2076796;28;20661;-63
2023/04/02 04:28:04;;;;;;;0.52;0.50;;;5.30;99.90;;;;;;2075954;28;20669;-62
2023/04/02 04:29:31;;;;;;;0.70;0.70;;;5.40;99.90;;;;;;2075313;28;20189;-63
2023/04/02 04:31:00;;;;;;;0.50;0.50;;;5.40;99.90;;;;;;2076501;28;20251;-63
2023/04/02 04:32:30;;;;;;;1.85;0.60;;;5.50;99.90;;;;;;2076672;28;20193;-63
2023/04/02 04:33:44;;;;;;;1.00;0.90;;;5.50;99.90;;;;;;2078771;28;20291;-63
2023/04/02 04:34:52;;;;;;;0.70;0.70;;;5.50;99.90;;;;;;2079662;28;20188;-63
2023/04/02 04:36:01;;;;;;;0.55;0.55;;;5.60;99.90;;;;;;2075032;28;20192;-63
2023/04/02 04:37:06;;;;;;;0.50;0.50;;;5.60;99.90;;;;;;2069558;28;20385;-64
2023/04/02 04:38:16;;;;;;;0.50;0.50;;;5.60;99.90;;;;;;2075874;28;20189;-63
2023/04/02 04:39:43;;;;;;;0.60;0.60;;;5.60;99.90;;;;;;2076783;28;20277;-63
2023/04/02 04:41:11;;;;;;;0.60;0.50;;;5.50;99.90;;;;;;2076128;28;20177;-63
2023/04/02 04:42:29;;;;;;;0.50;0.50;;;5.60;99.90;;;;;;2076045;28;20223;-62
2023/04/02 04:43:57;;;;;;;0.40;0.40;;;5.60;99.90;;;;;;2071193;28;20181;-63
2023/04/02 04:45:08;;;;;;;2.67;0.68;;;5.50;99.90;;;;;;2077130;28;20177;-62
2023/04/02 04:46:17;;;;;;;0.43;0.40;;;5.60;99.90;;;;;;2077107;28;20196;-64
2023/04/02 04:47:37;;;;;;;0.93;0.82;;;5.60;99.90;;;;;;2076190;28;20795;-63
2023/04/02 04:49:08;;;;;;;0.50;0.50;;;5.40;99.90;;;;;;2073247;28;20192;-63
2023/04/02 04:50:18;;;;;;;1.50;0.90;;;5.40;99.90;;;;;;2077863;28;20303;-64
2023/04/02 04:51:48;;;;;;;0.60;0.60;;;5.30;99.90;;;;;;2078468;28;20203;-63
2023/04/02 04:52:53;;;;;;;0.70;0.70;;;5.40;99.90;;;;;;2078435;28;20235;-63
2023/04/02 04:54:00;;;;;;;0.50;0.50;;;5.40;99.90;;;;;;2077869;28;20227;-62
2023/04/02 04:55:29;;;;;;;0.80;0.60;;;5.30;99.90;;;;;;2078644;28;20672;-63
2023/04/02 04:56:36;;;;;;;0.77;0.70;;;5.20;99.90;;;;;;2078103;28;20641;-63
2023/04/02 04:57:43;;;;;;;1.25;0.70;;;5.10;99.90;;;;;;2078026;28;20717;-62
2023/04/02 04:59:26;;;;;;;0.50;0.50;;;5.10;99.90;;;;;;2075213;28;20208;-63
2023/04/02 05:01:15;;;;;;;0.70;0.60;;;5.10;99.90;;;;;;2068237;28;20293;-63
2023/04/02 05:02:31;;;;;;;0.93;0.88;;;5.20;99.90;;;;;;2077342;28;20260;-63
2023/04/02 05:03:54;;;;;;;0.68;0.63;;;5.20;99.90;;;;;;2072792;28;20343;-64
2023/04/02 05:05:02;;;;;;;0.80;0.50;;;5.10;99.90;;;;;;2078045;28;20197;-63
2023/04/02 05:06:22;;;;;;;0.45;0.40;;;5.10;99.90;;;;;;2078233;28;20185;-65
2023/04/02 05:07:35;;;;;;;0.40;0.40;;;5.10;99.90;;;;;;2078402;28;20644;-63
2023/04/02 05:08:48;;;;;;;0.50;0.50;;;5.10;99.90;;;;;;2072622;28;20213;-64
2023/04/02 05:10:08;;;;;;;0.85;0.40;;;5.10;99.90;;;;;;2073782;28;20174;-62
2023/04/02 05:11:45;;;;;;;0.50;0.50;;;5.20;99.90;;;;;;2073013;28;20251;-63
2023/04/02 05:13:06;;;;;;;0.40;0.40;;;5.20;99.90;;;;;;2083279;28;20181;-61
2023/04/02 05:14:24;;;;;;;1.35;0.63;;;5.20;99.90;;;;;;2077223;28;20223;-63
2023/04/02 05:15:49;;;;;;;0.50;0.50;;;5.20;99.90;;;;;;2072146;28;20213;-63
2023/04/02 05:17:14;;;;;;;0.98;0.70;;;5.20;99.90;;;;;;2074612;28;20734;-63
2023/04/02 05:18:40;;;;;;;0.57;0.57;;;5.30;99.90;;;;;;2080604;28;20185;-63
2023/04/02 05:19:56;;;;;;;0.93;0.70;;;5.30;99.90;;;;;;2077269;28;20252;-62
2023/04/02 05:21:13;;;;;;;0.50;0.50;;;5.30;99.90;;;;;;2072190;28;20189;-64
2023/04/02 05:22:30;;;;;;;1.40;0.50;;;5.40;99.90;;;;;;2076806;28;20197;-64
2023/04/02 05:23:54;;;;;;;0.70;0.70;;;5.30;99.90;;;;;;2071627;28;20184;-63
2023/04/02 05:25:15;;;;;;;1.08;0.82;;;5.30;99.90;;;;;;2072864;28;20181;-64
2023/04/02 05:26:24;;;;;;;1.55;1.35;;;5.40;99.90;;;;;;2073363;28;20398;-63
2023/04/02 05:27:51;;;;;;;1.02;0.70;;;5.30;99.90;;;;;;2071562;28;20193;-63
2023/04/02 05:29:12;;;;;;;1.95;0.60;;;5.40;99.90;;;;;;2073140;28;20185;-63
2023/04/02 05:30:23;;;;;;;0.50;0.50;;;5.40;99.90;;;;;;2073501;28;20189;-64
2023/04/02 05:32:00;;;;;;;0.40;0.40;;;5.30;99.90;;;;;;2079433;28;20234;-63
2023/04/02 05:33:22;;;;;;;0.50;0.50;;;5.20;99.90;;;;;;2077801;28;20197;-63
2023/04/02 05:34:35;;;;;;;0.40;0.40;;;5.20;99.90;;;;;;2077724;28;20585;-63
2023/04/02 05:35:46;;;;;;;0.40;0.40;;;5.20;99.90;;;;;;2077868;28;20185;-63
2023/04/02 05:36:53;;;;;;;0.43;0.43;;;5.30;99.90;;;;;;2077898;28;20186;-63
2023/04/02 05:38:00;;;;;;;0.55;0.55;;;5.20;99.90;;;;;;2077560;28;20189;-63
2023/04/02 05:39:09;;;;;;;0.75;0.52;;;5.20;99.90;;;;;;2077921;28;20242;-62
2023/04/02 05:40:20;;;;;;;0.40;0.40;;;5.30;99.90;;;;;;2077964;28;20226;-63
2023/04/02 05:41:31;;;;;;;0.50;0.50;;;5.30;99.90;;;;;;2074527;28;20220;-63
2023/04/02 05:42:38;;;;;;;4.32;2.78;;;5.40;99.90;;;;;;2076994;28;20630;-63
2023/04/02 05:43:47;;;;;;;3.42;1.90;;;5.40;99.90;;;;;;2077558;28;20277;-63
2023/04/02 05:45:24;;;;;;;0.82;0.80;;;5.40;99.90;;;;;;2077569;28;20689;-63
2023/04/02 05:46:36;;;;;;;0.77;0.50;;;5.40;99.90;;;;;;2077202;28;20217;-62
2023/04/02 05:47:45;;;;;;;0.50;0.50;;;4.60;99.90;;;;;;2078160;28;20190;-63
2023/04/02 05:48:56;;;;;;;0.30;0.30;;;5.60;99.90;;;;;;2077124;28;20193;-62
2023/04/02 05:50:11;;;;;;;0.60;0.50;;;5.60;99.90;;;;;;2070866;28;20598;-62
2023/04/02 05:51:24;;;;;;;0.77;0.40;;;5.50;99.90;;;;;;2076499;28;20243;-62
2023/04/02 05:52:37;;;;;;;0.45;0.45;;;5.50;99.90;;;;;;2077093;28;20180;-62
2023/04/02 05:53:54;;;;;;;0.55;0.50;;;5.50;99.90;;;;;;2077729;28;20227;-62
2023/04/02 05:55:12;;;;;;;0.40;0.40;;;5.50;99.90;;;;;;2078488;28;20185;-63
2023/04/02 05:56:27;;;;;;;0.70;0.50;;;5.50;99.90;;;;;;2076372;28;20196;-62
2023/04/02 05:58:08;;;;;;;0.68;0.68;;;5.50;99.90;;;;;;2077280;28;20567;-62
2023/04/02 05:59:25;;;;;;;0.65;0.60;;;5.60;99.90;;;;;;2075758;28;20231;-62
2023/04/02 06:00:36;;;;;;;0.90;0.60;;;5.70;99.90;;;;;;2076814;28;20188;-62
2023/04/02 06:02:10;;;;;;;0.50;0.50;;;5.70;99.90;;;;;;2076129;28;20213;-62
2023/04/02 06:03:29;;;;;;;1.48;0.95;;;5.70;99.90;;;;;;2076770;28;20197;-62
2023/04/02 06:04:50;;;;;;;1.10;0.65;;;5.80;99.90;;;;;;2077025;28;20238;-62
2023/04/02 06:06:03;;;;;;;1.02;0.60;;;5.70;99.90;;;;;;2077312;28;20227;-63
2023/04/02 06:07:15;;;;;;;0.80;0.57;;;5.70;99.90;;;;;;2076725;28;20185;-62
2023/04/02 06:08:31;;;;;;;1.15;0.80;;;5.70;99.90;;;;;;2072006;28;20239;-62
2023/04/02 06:09:57;;;;;;;2.40;0.70;;;5.70;99.90;;;;;;2074946;28;20185;-62
2023/04/02 06:11:19;;;;;;;1.58;0.70;;;5.80;99.90;;;;;;2077049;28;20264;-63
2023/04/02 06:12:40;;;;;;;1.30;0.70;;;5.90;99.90;;;;;;2077761;28;20192;-62
2023/04/02 06:13:45;;;;;;;1.10;0.70;;;6.10;99.90;;;;;;2072387;28;20182;-63
2023/04/02 06:14:51;;;;;;;0.50;0.50;;;6.20;99.90;;;;;;2077702;28;20207;-62
2023/04/02 06:15:57;;;;;;;0.68;0.68;;;6.30;99.90;;;;;;2077828;28;20209;-63
2023/04/02 06:17:03;;;;;;;1.40;0.70;;;6.30;99.90;;;;;;2077814;28;20217;-63
2023/04/02 06:18:19;;;;;;;0.60;0.60;;;6.40;99.90;;;;;;2076770;28;20600;-64
2023/04/02 06:19:36;;;;;;;0.40;0.40;;;6.50;99.90;;;;;;2071269;28;20201;-62
2023/04/02 06:20:42;;;;;;;1.38;0.60;;;6.60;99.90;;;;;;2070172;28;20692;-63
2023/04/02 06:21:51;;;;;;;1.00;0.70;;;6.60;99.90;;;;;;2076690;28;20603;-64
2023/04/02 06:23:54;;;;;;;0.60;0.60;;;6.60;99.90;;;;;;2076856;28;20260;-63
2023/04/02 06:25:09;;;;;;;1.58;0.90;;;6.60;99.90;;;;;;2073662;28;20198;-64
2023/04/02 06:26:30;;;;;;;0.80;0.80;;;6.60;99.90;;;;;;2070989;28;20217;-63
2023/04/02 06:27:38;;;;;;;0.88;0.88;;;6.50;99.90;;;;;;2064619;28;20548;-63
2023/04/02 06:29:07;;;;;;;1.85;1.10;;;6.50;99.90;;;;;;2066368;28;20198;-64
2023/04/02 06:30:20;;;;;;;1.23;0.82;;;6.50;99.90;;;;;;2076857;28;20688;-64
2023/04/02 06:31:35;;;;;;;1.08;0.60;;;6.50;99.90;;;;;;2076807;28;20254;-63
2023/04/02 06:32:41;;;;;;;0.70;0.70;;;6.40;99.90;;;;;;2077014;28;20695;-64
2023/04/02 06:33:51;;;;;;;1.00;0.80;;;6.40;99.90;;;;;;2077281;28;20188;-61
2023/04/02 06:34:57;;;;;;;0.98;0.70;;;6.50;99.90;;;;;;2080856;28;20204;-62
2023/04/02 06:36:04;;;;;;;0.70;0.70;;;6.50;99.90;;;;;;2077455;28;20848;-62
2023/04/02 06:37:29;;;;;;;0.63;0.60;;;6.50;99.90;;;;;;2076450;28;20190;-63
2023/04/02 06:38:36;;;;;;;1.30;0.88;;;6.60;99.90;;;;;;2075812;28;20197;-63
2023/04/02 06:39:42;;;;;;;1.38;0.50;;;6.60;99.90;;;;;;2076653;28;20195;-64
2023/04/02 06:40:53;;;;;;;0.43;0.43;;;6.70;99.90;;;;;;2076979;28;20205;-62
2023/04/02 06:42:06;;;;;;;0.50;0.50;;;6.80;99.90;;;;;;2077258;28;20662;-62
2023/04/02 06:43:32;;;;;;;0.60;0.50;;;6.80;99.90;;;;;;2074649;28;20666;-64
2023/04/02 06:44:38;;;;;;;1.33;0.90;;;7.00;99.90;;;;;;2077537;28;20182;-61
2023/04/02 06:45:48;;;;;;;5.47;1.42;;;7.00;99.90;;;;;;2077751;28;20205;-63